createdAt,value
2023-04-26T00:02:46.444Z,5.04
2023-04-26T00:07:50.448Z,5.16
2023-04-26T00:12:52.433Z,5.25
2023-04-26T00:17:54.056Z,5.31
2023-04-26T00:22:55.766Z,5.42
2023-04-26T00:27:57.488Z,5.44
2023-04-26T00:32:59.090Z,5.45
2023-04-26T00:38:00.912Z,5.34
2023-04-26T00:43:03.436Z,5.30
2023-04-26T00:48:05.317Z,5.20
2023-04-26T00:53:08.526Z,5.08
2023-04-26T00:58:10.814Z,5.05
2023-04-26T01:03:12.554Z,5.11
2023-04-26T01:08:17.219Z,5.22
2023-04-26T01:13:18.960Z,5.26
2023-04-26T01:18:22.059Z,5.21
2023-04-26T01:23:24.791Z,5.06
2023-04-26T01:28:26.960Z,4.91
2023-04-26T01:33:28.494Z,4.73
2023-04-26T01:38:30.030Z,4.48
2023-04-26T01:43:31.631Z,4.29
2023-04-26T01:48:33.213Z,4.18
2023-04-26T01:53:36.010Z,4.11
2023-04-26T01:58:39.470Z,4.10
2023-04-26T02:03:41.195Z,3.78
2023-04-26T02:08:42.765Z,3.67
2023-04-26T02:13:44.313Z,3.48
2023-04-26T02:18:46.020Z,3.34
2023-04-26T02:23:48.200Z,3.28
2023-04-26T02:28:49.961Z,3.16
2023-04-26T02:33:51.555Z,2.91
2023-04-26T02:38:53.303Z,2.82
2023-04-26T02:43:55.401Z,2.71
2023-04-26T02:48:57.100Z,2.58
2023-04-26T02:53:59.150Z,2.52
2023-04-26T02:59:00.881Z,2.36
2023-04-26T03:04:02.693Z,2.27
2023-04-26T03:09:05.845Z,2.11
2023-04-26T03:14:07.712Z,2.05
2023-04-26T03:19:09.662Z,1.95
2023-04-26T03:24:13.555Z,1.84
2023-04-26T03:29:15.990Z,1.73
2023-04-26T03:34:17.585Z,1.63
2023-04-26T03:39:22.194Z,1.59
2023-04-26T03:44:23.912Z,1.52
2023-04-26T03:49:25.734Z,1.37
2023-04-26T03:54:27.469Z,1.33
2023-04-26T03:59:30.019Z,1.21
2023-04-26T04:04:32.022Z,1.14
2023-04-26T04:09:33.954Z,1.09
2023-04-26T04:14:35.658Z,1.05
2023-04-26T04:19:37.558Z,1.10
2023-04-26T04:24:39.407Z,1.16
2023-04-26T04:29:41.531Z,1.13
2023-04-26T04:34:44.388Z,1.10
2023-04-26T04:39:46.581Z,1.10
2023-04-26T04:44:50.070Z,1.20
2023-04-26T04:49:53.049Z,1.36
2023-04-26T04:54:55.961Z,1.41
2023-04-26T04:59:58.534Z,1.67
2023-04-26T05:05:02.070Z,1.95
2023-04-26T05:10:04.539Z,2.05
2023-04-26T05:15:07.203Z,2.34
2023-04-26T05:20:09.345Z,2.64
2023-04-26T05:25:11.493Z,2.86
2023-04-26T05:30:13.991Z,3.06
2023-04-26T05:35:35.586Z,3.28
2023-04-26T05:40:37.298Z,3.53
2023-04-26T05:45:39.745Z,3.90
2023-04-26T05:50:41.757Z,4.20
2023-04-26T05:55:44.106Z,4.41
2023-04-26T06:00:46.115Z,4.69
2023-04-26T06:05:47.642Z,5.00
2023-04-26T06:10:49.270Z,5.30
2023-04-26T06:15:53.864Z,5.60
2023-04-26T06:20:56.357Z,5.82
2023-04-26T06:25:58.034Z,6.25
2023-04-26T06:31:00.301Z,6.58
2023-04-26T06:36:02.552Z,6.80
2023-04-26T06:41:04.264Z,7.32
2023-04-26T06:46:06.424Z,7.50
2023-04-26T06:51:08.840Z,7.38
2023-04-26T06:56:10.414Z,7.29
2023-04-26T07:01:12.196Z,7.60
2023-04-26T07:06:13.744Z,7.95
2023-04-26T07:11:15.526Z,8.36
2023-04-26T07:16:20.256Z,8.38
2023-04-26T07:21:21.984Z,8.50
2023-04-26T07:26:24.450Z,8.69
2023-04-26T07:31:26.015Z,8.90
2023-04-26T07:36:28.547Z,9.15
2023-04-26T07:41:30.276Z,9.12
2023-04-26T07:46:35.855Z,9.31
2023-04-26T07:51:37.544Z,9.33
2023-04-26T07:56:39.089Z,9.46
2023-04-26T08:01:40.703Z,9.49
2023-04-26T08:06:45.076Z,9.65
2023-04-26T08:11:46.675Z,9.92
2023-04-26T08:16:48.319Z,9.88
2023-04-26T08:21:50.252Z,9.69
2023-04-26T08:26:51.974Z,9.88
2023-04-26T08:31:54.191Z,9.94
2023-04-26T08:36:58.394Z,9.95
2023-04-26T08:42:06.829Z,9.98
2023-04-26T08:47:35.259Z,10.25
2023-04-26T08:52:41.944Z,10.69
2023-04-26T08:57:49.559Z,11.03
2023-04-26T09:02:52.927Z,11.47
2023-04-26T09:08:02.326Z,12.05
2023-04-26T09:13:03.967Z,11.86
2023-04-26T09:18:19.673Z,11.95
2023-04-26T09:23:21.561Z,12.59
2023-04-26T09:28:24.382Z,13.35
2023-04-26T09:33:26.047Z,13.68
2023-04-26T09:38:27.612Z,12.99
2023-04-26T09:43:37.699Z,12.49
2023-04-26T09:48:39.247Z,12.47
2023-04-26T09:53:46.495Z,12.70
2023-04-26T09:58:58.334Z,12.85
2023-04-26T10:04:04.731Z,13.06
2023-04-26T10:09:09.190Z,13.54
2023-04-26T10:14:11.396Z,14.21
2023-04-26T10:19:13.998Z,13.86
2023-04-26T10:24:16.037Z,13.99
2023-04-26T10:29:18.069Z,14.47
2023-04-26T10:34:31.135Z,14.38
2023-04-26T10:39:32.765Z,14.21
2023-04-26T10:44:45.806Z,14.80
2023-04-26T10:49:48.259Z,14.68
2023-04-26T10:54:57.753Z,14.97
2023-04-26T11:00:14.404Z,15.64
2023-04-26T11:05:35.862Z,15.83
2023-04-26T11:10:38.981Z,16.36
2023-04-26T11:15:40.757Z,14.96
2023-04-26T11:20:42.344Z,14.18
2023-04-26T11:25:46.727Z,13.65
2023-04-26T11:30:50.461Z,13.64
2023-04-26T11:35:53.978Z,14.02
2023-04-26T11:40:57.208Z,13.93
2023-04-26T11:46:03.475Z,14.43
2023-04-26T11:51:07.293Z,15.30
2023-04-26T11:56:23.121Z,16.11
2023-04-26T12:01:29.817Z,16.68
2023-04-26T12:06:41.671Z,16.01
2023-04-26T12:11:49.549Z,15.14
2023-04-26T12:16:51.181Z,14.55
2023-04-26T12:21:53.402Z,14.78
2023-04-26T12:26:55.068Z,15.13
2023-04-26T12:31:57.321Z,15.52
2023-04-26T12:36:59.022Z,15.42
2023-04-26T12:42:00.675Z,14.86
2023-04-26T12:47:02.430Z,14.84
2023-04-26T12:52:04.394Z,15.26
2023-04-26T12:57:06.139Z,15.44
2023-04-26T13:02:10.642Z,15.23
2023-04-26T13:07:14.879Z,14.95
2023-04-26T13:12:16.529Z,14.89
2023-04-26T13:17:18.117Z,14.82
2023-04-26T13:22:20.586Z,14.85
2023-04-26T13:27:22.555Z,14.45
2023-04-26T13:32:24.228Z,14.26
2023-04-26T13:37:26.965Z,14.05
2023-04-26T13:42:28.609Z,14.16
2023-04-26T13:47:30.193Z,13.82
2023-04-26T13:52:31.788Z,13.47
2023-04-26T13:57:33.351Z,13.16
2023-04-26T14:02:35.056Z,12.88
2023-04-26T14:07:36.855Z,12.92
2023-04-26T14:12:38.570Z,12.85
2023-04-26T14:17:40.196Z,12.84
2023-04-26T14:22:41.773Z,13.24
2023-04-26T14:27:43.748Z,13.52
2023-04-26T14:32:45.689Z,13.80
2023-04-26T14:37:47.343Z,13.55
2023-04-26T14:42:48.979Z,13.67
2023-04-26T14:47:50.578Z,13.88
2023-04-26T14:52:52.281Z,13.92
2023-04-26T14:57:54.543Z,13.92
2023-04-26T15:02:56.540Z,13.99
2023-04-26T15:07:58.135Z,14.20
2023-04-26T15:12:59.696Z,14.61
2023-04-26T15:18:02.151Z,14.68
2023-04-26T15:23:03.757Z,14.69
2023-04-26T15:28:05.475Z,14.45
2023-04-26T15:33:12.854Z,14.96
2023-04-26T15:38:14.401Z,15.00
2023-04-26T15:43:16.316Z,14.98
2023-04-26T15:48:18.105Z,14.98
2023-04-26T15:53:20.526Z,15.05
2023-04-26T15:58:22.332Z,14.94
2023-04-26T16:03:24.099Z,14.84
2023-04-26T16:08:39.451Z,14.50
2023-04-26T16:13:42.323Z,14.32
2023-04-26T16:18:44.363Z,14.15
2023-04-26T16:23:45.966Z,14.03
2023-04-26T16:28:47.501Z,14.49
2023-04-26T16:33:49.097Z,14.81
2023-04-26T16:38:50.947Z,15.18
2023-04-26T16:43:54.162Z,15.23
2023-04-26T16:48:55.742Z,15.06
2023-04-26T16:53:57.279Z,14.97
2023-04-26T16:58:59.190Z,14.51
2023-04-26T17:04:00.993Z,14.02
2023-04-26T17:09:04.380Z,13.58
2023-04-26T17:14:06.280Z,13.33
2023-04-26T17:19:07.857Z,13.28
2023-04-26T17:24:09.401Z,13.43
2023-04-26T17:29:11.002Z,13.39
2023-04-26T17:34:12.674Z,13.20
2023-04-26T17:39:14.410Z,13.01
2023-04-26T17:44:16.036Z,12.67
2023-04-26T17:49:17.716Z,12.32
2023-04-26T17:54:19.269Z,12.09
2023-04-26T17:59:20.807Z,11.96
2023-04-26T18:04:23.887Z,11.88
2023-04-26T18:09:25.832Z,11.83
2023-04-26T18:14:27.894Z,11.85
2023-04-26T18:19:29.456Z,11.82
2023-04-26T18:24:31.102Z,11.61
2023-04-26T18:29:32.910Z,11.32
2023-04-26T18:34:34.507Z,11.02
2023-04-26T18:39:36.115Z,10.70
2023-04-26T18:44:37.957Z,10.41
2023-04-26T18:49:39.678Z,10.03
2023-04-26T18:54:41.394Z,9.70
2023-04-26T18:59:42.916Z,9.52
2023-04-26T19:04:44.760Z,9.34
2023-04-26T19:09:54.109Z,9.15
2023-04-26T19:14:56.900Z,9.16
2023-04-26T19:19:58.570Z,9.09
2023-04-26T19:25:00.198Z,8.93
2023-04-26T19:30:01.825Z,8.98
2023-04-26T19:35:06.067Z,8.95
2023-04-26T19:40:09.093Z,8.94
2023-04-26T19:45:11.319Z,8.83
2023-04-26T19:50:12.996Z,8.65
2023-04-26T19:55:14.914Z,8.44
2023-04-26T20:00:16.925Z,8.23
2023-04-26T20:05:18.678Z,7.90
2023-04-26T20:10:23.518Z,7.69
2023-04-26T20:15:25.111Z,7.53
2023-04-26T20:20:26.893Z,7.48
2023-04-26T20:25:28.466Z,7.55
2023-04-26T20:30:33.798Z,7.61
2023-04-26T20:35:35.479Z,7.65
2023-04-26T20:40:37.588Z,7.64
2023-04-26T20:45:40.434Z,7.64
2023-04-26T20:50:42.113Z,7.66
2023-04-26T20:55:43.660Z,7.67
2023-04-26T21:00:45.201Z,7.66
2023-04-26T21:05:46.852Z,7.58
2023-04-26T21:10:48.664Z,7.56
2023-04-26T21:15:50.265Z,7.50
2023-04-26T21:20:51.805Z,7.47
2023-04-26T21:25:53.361Z,7.46
2023-04-26T21:31:05.298Z,7.44
2023-04-26T21:36:07.226Z,7.53
2023-04-26T21:41:08.806Z,7.55
2023-04-26T21:46:11.908Z,7.54
2023-04-26T21:51:13.653Z,7.57
2023-04-26T21:56:15.304Z,7.60
2023-04-26T22:01:17.032Z,7.65
2023-04-26T22:06:18.679Z,7.63
2023-04-26T22:11:21.633Z,7.68
2023-04-26T22:16:23.229Z,7.74
2023-04-26T22:21:24.964Z,7.74
2023-04-26T22:26:26.971Z,7.75
2023-04-26T22:31:28.549Z,7.68
2023-04-26T22:36:30.442Z,7.58
2023-04-26T22:41:32.054Z,7.50
2023-04-26T22:46:33.803Z,7.48
2023-04-26T22:51:35.475Z,7.47
2023-04-26T22:56:37.492Z,7.44
2023-04-26T23:01:39.038Z,7.41
2023-04-26T23:06:40.877Z,7.31
2023-04-26T23:11:42.458Z,7.30
2023-04-26T23:16:44.073Z,7.24
2023-04-26T23:21:45.801Z,7.25
2023-04-26T23:26:47.396Z,7.29
2023-04-26T23:31:49.054Z,7.18
2023-04-26T23:36:50.801Z,7.15
2023-04-26T23:41:52.341Z,7.09
2023-04-26T23:46:53.899Z,7.02
2023-04-26T23:51:55.599Z,6.98
2023-04-26T23:56:57.273Z,6.91
